AirNav   Air Wisconsin pilot careers
 
 1419 users online  

38D Salem Airpark Inc
Salem, Ohio, USA

GOING TO SALEM?


FAA INFORMATION EFFECTIVE 09 NOVEMBER 2017

Location

FAA Identifier: 38D
Lat/Long: 40-56-53.1000N / 080-51-43.5000W
40-56.885000N / 080-51.725000W
40.9480833 / -80.8620833
(estimated)
Elevation: 1161.7 ft. / 354.1 m (surveyed)
Variation: 07W (1985)
From city: 3 miles N of SALEM, OH
Time zone: UTC -5 (UTC -4 during Daylight Saving Time)
Zip code: 44460

Airport Operations

Airport use: Open to the public
Activation date: 10/1952
Control tower: no
ARTCC: CLEVELAND CENTER
FSS: CLEVELAND FLIGHT SERVICE STATION
NOTAMs facility: CLE (NOTAM-D service available)
Attendance: UNATNDD
Wind indicator: yes
Segmented circle: no
Lights: ACTVT LIRL RWY 10L/28R - CTAF
Beacon: white-green (lighted land airport)
Operates sunset to sunrise.
Landing fee: yes

Airport Communications

CTAF/UNICOM: 122.7
AKRON-CANTON APPROACH: 125.5 [0600-2300]
AKRON-CANTON DEPARTURE: 125.5 [0600-2300]
  • APCH/DEP SERVICE PROVIDED BY CLEVELAND ARTCC (ZOB) ON FREQS 120.775/298.95 (CHARDON RCAG) OR CALL CLEVELAND ARTCC (ZOB) 440-774-0489 WHEN AKRON-CANTON (CAK) APCH CTL CLSD.

Nearby radio navigation aids

VOR radial/distance  VOR name  Freq  Var
ACOr126/18.1AKRON VOR/DME114.4004W
YNGr205/24.5YOUNGSTOWN VORTAC109.0005W
BSVr068/28.7BRIGGS VOR/DME112.4004W
EWCr292/30.4ELLWOOD CITY VORTAC115.8008W
CXRr163/36.7CHARDON VOR/DME112.7005W

 
NDB name  Hdg/Dist  Freq  Var  ID
CASTLE266/20.727209WUCP ..- -.-. .--.

Airport Services

Fuel available: 100LL
Parking: hangars and tiedowns
Airframe service: NONE
Powerplant service: NONE
Bottled oxygen: NONE
Bulk oxygen: NONE

Runway Information

Runway 10L/28R

Dimensions: 3404 x 50 ft. / 1038 x 15 m
Surface: asphalt, in fair condition
Runway edge lights: low intensity
RWY 10L/28R: NSTD LIRL; ; RWY 10L LGTD 238 FT FM RWY END; RWY 28R LGTD 330 FT FM RWY END WITH 360 DEG GREEN LGTS.
Runway edge markings: RWY 10L/28R: MARKING NON-STANDARD
RUNWAY 10L  RUNWAY 28R
Latitude: 40-56.893863N40-56.893103N
Longitude: 080-52.131392W080-51.392095W
Elevation: 1151.9 ft.1161.7 ft.
Traffic pattern: leftleft
Runway heading: 097 magnetic, 090 true277 magnetic, 270 true
Displaced threshold: no266 ft.
Markings: NSTD, in fair conditionNSTD, in fair condition
Touchdown point: yes, no lightsyes, no lights
Obstructions: 30 ft. trees, 455 ft. from runway, 175 ft. left of centerline, 8:1 slope to clear
RWY 10L: +5FT BRUSH 175FT FM RWY 10L 60FT L/CL/R, OBST CLN SLOPE 0:1 TO THLD RWY 10L
26 ft. hill, 615 ft. from runway, 160 ft. both sides of centerline, 16:1 slope to clear
RWY 28R: +18FT ROAD 80FT FM RWY 28R, 125FT L/CL/R, 19:1 OBST CLN SLOPE TO DTHLD RWY 28R

Runway 10R/28L

Dimensions: 2593 x 85 ft. / 790 x 26 m
Surface: turf, in good condition
RWY 10R/28L (TURF): CTC APT FOR RWY COND PRIOR TO USE. WHEN WET, MIDDLE CONNECTORS AT PAVED RWY EDGE VERY SOFT. RECOMMEND USING RWY END CONNECTORS, IF NOT FAMILIAR.
Runway edge markings: RWY 10R/28L (TURF): RWY ENDS NOT MKD; DITCH MKD WITH YELLOW CONES ON NORTH SIDE.
RUNWAY 10R  RUNWAY 28L
Latitude: 40-56.873805N40-56.870317N
Longitude: 080-51.959913W080-51.396827W
Elevation: 1150.2 ft.1161.7 ft.
Traffic pattern: leftleft
Runway heading: 097 magnetic, 090 true277 magnetic, 270 true
Obstructions: 85 ft. trees, 15 ft. from runway, 45 ft. right of centerline15 ft. road, 60 ft. left of centerline

Airport Ownership and Management from official FAA records

Ownership: Privately-owned
Owner: MICHAEL PIDGEON
11718 SALEM-WARREN ROAD
SALEM, OH 44460
Phone 330-332-4400
Manager: MICHAEL PIDGEON
11718 SALEM-WARREN ROAD
SALEM, OH 44460
Phone (330) 402-1136
ADNL CTC: (330) 402-1136; SALEMAIRPARK@YAHOO.COM

Airport Operational Statistics

Aircraft based on the field: 66
Single engine airplanes: 66
    
Aircraft operations: avg 31/day *
97% local general aviation
3% transient general aviation
<1% air taxi
* for 12-month period ending 26 August 2017

Additional Remarks

DRAG STRIP 3500 FT SE OF ARPT.
APCH/DEP SERVICE PROVIDED BY CLEVELAND ARTCC (ZOB) ON FREQS 120.775/298.95 (CHARDON RCAG) OR CALL CLEVELAND ARTCC (ZOB) 440-774-0489 WHEN AKRON-CANTON (CAK) APCH CTL CLSD.
DEER, BIRDS & OTHER WILDLIFE ON & INVOF APT

Instrument Procedures

NOTE: All procedures below are presented as PDF files. If you need a reader for these files, you should download the free Adobe Reader.

NOT FOR NAVIGATION. Please procure official charts for flight.
FAA instrument procedures published for use between 9 November 2017 at 0901Z and 7 December 2017 at 0900Z.

 
IAPs - Instrument Approach Procedures
VOR OR GPS-A   download (164KB)
NOTE: Special Take-Off Minimums/Departure Procedures apply   download (164KB)

Other nearby airports with instrument procedures:

3G6 - Tri-City Airport (7 nm W)
4G4 - Youngstown Elser Metro Airport (8 nm E)
02G - Columbiana County Airport (19 nm SE)
KYNG - Youngstown-Warren Regional Airport (21 nm NE)
KUCP - New Castle Municipal Airport (21 nm E)
 
Loc | Ops | Rwys | IFR | FBO | Links
Com | Nav | Svcs | Stats | Notes


 
Area around 38D (Salem Airpark Inc)
 
Road maps at: MapQuest Bing Google
 
Aerial photo
WARNING: Photo may not be current or correct
Aerial photo of 38D (Salem Airpark Inc)
Photo by Brad Smith
Photo taken 04-May-2008

Do you have a better or more recent aerial photo of Salem Airpark Inc that you would like to share? If so, please send us your photo.

 
Sectional chart

 
Airport distance calculator
Flying to Salem Airpark Inc? Find the distance to fly.

From to 38D

Sunrise and sunset
Times for 20-Nov-2017
 Local
(UTC-5)
 Zulu
(UTC)
Morning civil twilight06:4811:48
Sunrise07:1812:18
Sunset17:0122:01
Evening civil twilight17:3022:30

Current date and time
Zulu (UTC)  20-Nov-2017 18:49:32
Local (UTC-5)  20-Nov-2017 13:49:32
 
METAR
KYNG 
20nm NE 
201751Z 22009G18KT 10SM BKN250 04/M04 A3005 RMK AO2 SLP187 T00441039 10044 21022 58020
KUCP 
21nm E 
201756Z AUTO 21010G15KT 10SM CLR 04/M05 A3008 RMK AO2 SLP211 T00441050 10044 21022 58024
KPOV 
24nm NW 
201831Z AUTO 21008KT 180V240 10SM CLR 05/M05 A3004 RMK AO2 T00451047
KBVI 
24nm SE 
201747Z 23012G15KT 10SM CLR A3009
KCAK 
27nm W 
201751Z 21014KT 10SM FEW250 05/M03 A3007 RMK AO2 SLP194 T00501033 10050 21028 58022
KAKR 
28nm W 
201754Z AUTO 21014G22KT 10SM CLR 06/M04 A3006 RMK AO2 SLP188 T00561039 10056 21022 58021
KPIT 
38nm SE 
201751Z 23011KT 10SM SCT250 04/M06 A3010 RMK AO2 SLP210 T00391056 10039 21022 58020
KPHD 
38nm SW 
201753Z AUTO 20011G17KT 10SM CLR 05/M06 A3013 RMK AO2 SLP209 T00501056 10050 21022 58025
TAF
KYNG 
20nm NE 
201726Z 2018/2118 22012G18KT P6SM SKC FM202000 21012KT P6SM SKC WS020/23045KT FM211500 21018G28KT P6SM SCT120 BKN250
KBVI 
24nm SE 
201722Z 2018/2118 21012G18KT P6SM SKC FM210000 20007KT P6SM SKC FM210800 20007KT P6SM SKC WS020/23040KT FM211500 21010G18KT P6SM SCT150
NOTAMs
Click for the latest NOTAMs
NOTAMs are issued by the DoD/FAA and will open in a separate window not controlled by AirNav.

 

 
 

FBO, Fuel Providers, and Aircraft Ground Support

  
 Business Name 
 
 Contact 
 
 Services / Description 
 
Fuel Prices
 
Comments
  
Salem Air Park 330-332-4400
no information available

If you are affiliated with Salem Air Park and would like to show here your services, contact info, web link, logo, and more, click here
100LL
AS $5.16 
 Updated 17-Nov-2017
 
   1 read write
AS=Assisted/Self Service
Update Fuel Prices
 

Would you like to see your business listed on this page?

 If your business provides an interesting product or service to pilots, flight crews, aircraft, or users of the Salem Airpark Inc, you should consider listing it here.  To start the listing process, click on the button below
 
Add a business
 

Other Pages about Salem Airpark Inc

Update a link
 
Copyright © AirNav, LLC. All rights reserved. Privacy Policy  Contact